sensor_id;sensor_type;location;lat;lon;timestamp;P1;durP1;ratioP1;P2;durP2;ratioP2
13263;SDS011;6700;51.988;7.646;2023-11-18T00:01:44;34.00;;;22.00;;
13263;SDS011;6700;51.988;7.646;2023-11-18T00:04:11;34.57;;;21.33;;
13263;SDS011;6700;51.988;7.646;2023-11-18T00:06:42;37.35;;;21.92;;
13263;SDS011;6700;51.988;7.646;2023-11-18T00:09:13;35.63;;;21.33;;
13263;SDS011;6700;51.988;7.646;2023-11-18T00:11:41;34.35;;;22.67;;
13263;SDS011;6700;51.988;7.646;2023-11-18T00:14:10;37.65;;;22.35;;
13263;SDS011;6700;51.988;7.646;2023-11-18T00:16:37;33.53;;;21.80;;
13263;SDS011;6700;51.988;7.646;2023-11-18T00:19:05;38.13;;;22.10;;
13263;SDS011;6700;51.988;7.646;2023-11-18T00:21:32;37.67;;;22.20;;
13263;SDS011;6700;51.988;7.646;2023-11-18T00:24:00;35.17;;;21.98;;
13263;SDS011;6700;51.988;7.646;2023-11-18T00:26:27;35.20;;;23.25;;
13263;SDS011;6700;51.988;7.646;2023-11-18T00:28:55;35.53;;;23.20;;
13263;SDS011;6700;51.988;7.646;2023-11-18T00:31:22;39.13;;;22.65;;
13263;SDS011;6700;51.988;7.646;2023-11-18T00:33:49;41.47;;;24.35;;
13263;SDS011;6700;51.988;7.646;2023-11-18T00:36:16;48.97;;;26.17;;
13263;SDS011;6700;51.988;7.646;2023-11-18T00:38:42;44.83;;;26.40;;
13263;SDS011;6700;51.988;7.646;2023-11-18T00:41:09;41.60;;;25.90;;
13263;SDS011;6700;51.988;7.646;2023-11-18T00:43:36;45.30;;;26.20;;
13263;SDS011;6700;51.988;7.646;2023-11-18T00:46:03;41.30;;;24.55;;
13263;SDS011;6700;51.988;7.646;2023-11-18T00:48:31;46.25;;;25.95;;
13263;SDS011;6700;51.988;7.646;2023-11-18T00:50:58;43.30;;;25.90;;
13263;SDS011;6700;51.988;7.646;2023-11-18T00:53:25;48.92;;;25.40;;
13263;SDS011;6700;51.988;7.646;2023-11-18T00:55:51;47.83;;;25.90;;
13263;SDS011;6700;51.988;7.646;2023-11-18T00:58:18;45.53;;;26.23;;
13263;SDS011;6700;51.988;7.646;2023-11-18T01:00:46;47.70;;;26.83;;
13263;SDS011;6700;51.988;7.646;2023-11-18T01:03:13;47.67;;;24.75;;
13263;SDS011;6700;51.988;7.646;2023-11-18T01:05:39;46.47;;;26.02;;
13263;SDS011;6700;51.988;7.646;2023-11-18T01:08:07;43.25;;;26.40;;
13263;SDS011;6700;51.988;7.646;2023-11-18T01:10:35;40.03;;;26.10;;
13263;SDS011;6700;51.988;7.646;2023-11-18T01:13:01;43.05;;;25.27;;
13263;SDS011;6700;51.988;7.646;2023-11-18T01:15:28;44.72;;;25.67;;
13263;SDS011;6700;51.988;7.646;2023-11-18T01:17:58;44.97;;;25.67;;
13263;SDS011;6700;51.988;7.646;2023-11-18T01:20:25;41.35;;;26.40;;
13263;SDS011;6700;51.988;7.646;2023-11-18T01:22:51;42.22;;;25.60;;
13263;SDS011;6700;51.988;7.646;2023-11-18T01:25:18;43.35;;;25.38;;
13263;SDS011;6700;51.988;7.646;2023-11-18T01:27:45;41.28;;;24.55;;
13263;SDS011;6700;51.988;7.646;2023-11-18T01:30:15;44.25;;;26.27;;
13263;SDS011;6700;51.988;7.646;2023-11-18T01:32:42;46.58;;;26.98;;
13263;SDS011;6700;51.988;7.646;2023-11-18T01:35:09;38.80;;;25.38;;
13263;SDS011;6700;51.988;7.646;2023-11-18T01:37:39;44.20;;;25.23;;
13263;SDS011;6700;51.988;7.646;2023-11-18T01:40:06;48.00;;;24.02;;
13263;SDS011;6700;51.988;7.646;2023-11-18T01:42:34;37.33;;;23.67;;
13263;SDS011;6700;51.988;7.646;2023-11-18T01:45:01;43.22;;;25.02;;
13263;SDS011;6700;51.988;7.646;2023-11-18T01:47:31;38.97;;;23.58;;
13263;SDS011;6700;51.988;7.646;2023-11-18T01:49:59;36.95;;;23.58;;
13263;SDS011;6700;51.988;7.646;2023-11-18T01:52:27;32.30;;;20.92;;
13263;SDS011;6700;51.988;7.646;2023-11-18T01:54:57;34.47;;;21.70;;
13263;SDS011;6700;51.988;7.646;2023-11-18T01:57:25;30.63;;;21.35;;
13263;SDS011;6700;51.988;7.646;2023-11-18T01:59:53;29.02;;;20.27;;
13263;SDS011;6700;51.988;7.646;2023-11-18T02:02:20;28.13;;;20.20;;
13263;SDS011;6700;51.988;7.646;2023-11-18T02:04:47;26.85;;;19.15;;
13263;SDS011;6700;51.988;7.646;2023-11-18T02:07:15;26.90;;;20.17;;
13263;SDS011;6700;51.988;7.646;2023-11-18T02:09:42;26.30;;;20.23;;
13263;SDS011;6700;51.988;7.646;2023-11-18T02:14:47;27.95;;;17.65;;
13263;SDS011;6700;51.988;7.646;2023-11-18T02:17:18;25.23;;;17.43;;
13263;SDS011;6700;51.988;7.646;2023-11-18T02:19:53;25.58;;;17.95;;
13263;SDS011;6700;51.988;7.646;2023-11-18T02:22:23;22.48;;;17.42;;
13263;SDS011;6700;51.988;7.646;2023-11-18T02:24:50;24.90;;;16.85;;
13263;SDS011;6700;51.988;7.646;2023-11-18T02:27:17;24.50;;;17.30;;
13263;SDS011;6700;51.988;7.646;2023-11-18T02:29:46;25.45;;;18.13;;
13263;SDS011;6700;51.988;7.646;2023-11-18T02:32:18;25.83;;;17.88;;
13263;SDS011;6700;51.988;7.646;2023-11-18T02:34:56;21.85;;;16.45;;
13263;SDS011;6700;51.988;7.646;2023-11-18T02:37:44;22.00;;;16.85;;
13263;SDS011;6700;51.988;7.646;2023-11-18T02:40:16;34.78;;;17.10;;
13263;SDS011;6700;51.988;7.646;2023-11-18T02:43:02;24.23;;;17.08;;
13263;SDS011;6700;51.988;7.646;2023-11-18T02:45:35;28.88;;;17.25;;
13263;SDS011;6700;51.988;7.646;2023-11-18T02:48:03;24.20;;;17.63;;
13263;SDS011;6700;51.988;7.646;2023-11-18T02:50:33;18.98;;;16.00;;
13263;SDS011;6700;51.988;7.646;2023-11-18T02:53:01;24.52;;;16.63;;
13263;SDS011;6700;51.988;7.646;2023-11-18T02:55:29;25.73;;;17.00;;
13263;SDS011;6700;51.988;7.646;2023-11-18T02:57:56;20.52;;;17.00;;
13263;SDS011;6700;51.988;7.646;2023-11-18T03:00:23;27.00;;;17.07;;
13263;SDS011;6700;51.988;7.646;2023-11-18T03:02:50;21.95;;;16.23;;
13263;SDS011;6700;51.988;7.646;2023-11-18T03:05:18;22.70;;;16.80;;
13263;SDS011;6700;51.988;7.646;2023-11-18T03:07:45;21.33;;;17.02;;
13263;SDS011;6700;51.988;7.646;2023-11-18T03:10:16;20.23;;;16.08;;
13263;SDS011;6700;51.988;7.646;2023-11-18T03:12:53;20.63;;;16.93;;
13263;SDS011;6700;51.988;7.646;2023-11-18T03:15:23;26.73;;;16.25;;
13263;SDS011;6700;51.988;7.646;2023-11-18T03:17:50;24.37;;;16.47;;
13263;SDS011;6700;51.988;7.646;2023-11-18T03:20:18;24.92;;;17.30;;
13263;SDS011;6700;51.988;7.646;2023-11-18T03:22:46;21.23;;;16.13;;
13263;SDS011;6700;51.988;7.646;2023-11-18T03:25:13;23.70;;;16.67;;
13263;SDS011;6700;51.988;7.646;2023-11-18T03:27:40;19.80;;;16.58;;
13263;SDS011;6700;51.988;7.646;2023-11-18T03:30:07;18.55;;;16.13;;
13263;SDS011;6700;51.988;7.646;2023-11-18T03:32:35;22.05;;;17.05;;
13263;SDS011;6700;51.988;7.646;2023-11-18T03:35:03;21.80;;;16.15;;
13263;SDS011;6700;51.988;7.646;2023-11-18T03:37:37;19.55;;;15.35;;
13263;SDS011;6700;51.988;7.646;2023-11-18T03:40:08;19.52;;;16.02;;
13263;SDS011;6700;51.988;7.646;2023-11-18T03:42:35;19.63;;;15.80;;
13263;SDS011;6700;51.988;7.646;2023-11-18T03:45:03;18.38;;;15.93;;
13263;SDS011;6700;51.988;7.646;2023-11-18T03:47:31;20.25;;;15.73;;
13263;SDS011;6700;51.988;7.646;2023-11-18T03:49:57;21.67;;;16.63;;
13263;SDS011;6700;51.988;7.646;2023-11-18T03:52:25;19.60;;;15.65;;
13263;SDS011;6700;51.988;7.646;2023-11-18T03:54:52;17.67;;;15.27;;
13263;SDS011;6700;51.988;7.646;2023-11-18T03:57:18;18.73;;;15.70;;
13263;SDS011;6700;51.988;7.646;2023-11-18T03:59:45;21.70;;;15.88;;
13263;SDS011;6700;51.988;7.646;2023-11-18T04:02:12;20.42;;;15.65;;
13263;SDS011;6700;51.988;7.646;2023-11-18T04:04:39;22.52;;;17.02;;
13263;SDS011;6700;51.988;7.646;2023-11-18T04:07:06;22.42;;;16.77;;
13263;SDS011;6700;51.988;7.646;2023-11-18T04:09:33;19.90;;;16.08;;
13263;SDS011;6700;51.988;7.646;2023-11-18T04:11:59;20.80;;;17.00;;
13263;SDS011;6700;51.988;7.646;2023-11-18T04:14:27;22.38;;;17.10;;
13263;SDS011;6700;51.988;7.646;2023-11-18T04:16:54;21.90;;;16.10;;
13263;SDS011;6700;51.988;7.646;2023-11-18T04:19:23;21.02;;;15.63;;
13263;SDS011;6700;51.988;7.646;2023-11-18T04:21:50;21.93;;;16.50;;
13263;SDS011;6700;51.988;7.646;2023-11-18T04:24:17;20.80;;;16.15;;
13263;SDS011;6700;51.988;7.646;2023-11-18T04:26:43;20.88;;;16.05;;
13263;SDS011;6700;51.988;7.646;2023-11-18T04:29:10;19.50;;;15.43;;
13263;SDS011;6700;51.988;7.646;2023-11-18T04:31:37;20.35;;;15.73;;
13263;SDS011;6700;51.988;7.646;2023-11-18T04:34:04;21.40;;;16.30;;
13263;SDS011;6700;51.988;7.646;2023-11-18T04:36:31;19.35;;;16.23;;
13263;SDS011;6700;51.988;7.646;2023-11-18T04:38:58;20.88;;;15.98;;
13263;SDS011;6700;51.988;7.646;2023-11-18T04:41:25;19.02;;;16.17;;
13263;SDS011;6700;51.988;7.646;2023-11-18T04:43:52;21.02;;;16.20;;
13263;SDS011;6700;51.988;7.646;2023-11-18T04:46:19;20.45;;;16.20;;
13263;SDS011;6700;51.988;7.646;2023-11-18T04:48:48;20.67;;;15.70;;
13263;SDS011;6700;51.988;7.646;2023-11-18T04:51:15;20.45;;;15.75;;
13263;SDS011;6700;51.988;7.646;2023-11-18T04:53:43;21.17;;;16.40;;
13263;SDS011;6700;51.988;7.646;2023-11-18T04:56:11;21.15;;;16.17;;
13263;SDS011;6700;51.988;7.646;2023-11-18T04:58:39;20.38;;;15.85;;
13263;SDS011;6700;51.988;7.646;2023-11-18T05:01:06;21.83;;;15.98;;
13263;SDS011;6700;51.988;7.646;2023-11-18T05:03:35;20.70;;;16.42;;
13263;SDS011;6700;51.988;7.646;2023-11-18T05:06:02;19.45;;;15.77;;
13263;SDS011;6700;51.988;7.646;2023-11-18T05:08:31;21.63;;;16.70;;
13263;SDS011;6700;51.988;7.646;2023-11-18T05:11:00;20.27;;;16.73;;
13263;SDS011;6700;51.988;7.646;2023-11-18T05:13:27;20.55;;;16.35;;
13263;SDS011;6700;51.988;7.646;2023-11-18T05:15:56;20.95;;;15.93;;
13263;SDS011;6700;51.988;7.646;2023-11-18T05:18:22;19.55;;;15.35;;
13263;SDS011;6700;51.988;7.646;2023-11-18T05:20:49;19.48;;;15.77;;
13263;SDS011;6700;51.988;7.646;2023-11-18T05:23:16;19.13;;;15.85;;
13263;SDS011;6700;51.988;7.646;2023-11-18T05:25:43;20.15;;;15.38;;
13263;SDS011;6700;51.988;7.646;2023-11-18T05:28:10;19.55;;;14.77;;
13263;SDS011;6700;51.988;7.646;2023-11-18T05:30:38;19.40;;;14.68;;
13263;SDS011;6700;51.988;7.646;2023-11-18T05:33:09;19.20;;;15.35;;
13263;SDS011;6700;51.988;7.646;2023-11-18T05:35:41;19.70;;;15.57;;
13263;SDS011;6700;51.988;7.646;2023-11-18T05:38:15;19.30;;;15.13;;
13263;SDS011;6700;51.988;7.646;2023-11-18T05:40:45;20.95;;;15.15;;
13263;SDS011;6700;51.988;7.646;2023-11-18T05:43:28;18.88;;;15.25;;
13263;SDS011;6700;51.988;7.646;2023-11-18T05:46:02;20.42;;;15.73;;
13263;SDS011;6700;51.988;7.646;2023-11-18T05:48:42;20.23;;;14.85;;
13263;SDS011;6700;51.988;7.646;2023-11-18T05:51:10;18.35;;;15.35;;
13263;SDS011;6700;51.988;7.646;2023-11-18T05:53:41;17.75;;;14.60;;
13263;SDS011;6700;51.988;7.646;2023-11-18T05:56:13;16.95;;;14.45;;
13263;SDS011;6700;51.988;7.646;2023-11-18T05:58:40;22.25;;;14.77;;
13263;SDS011;6700;51.988;7.646;2023-11-18T06:01:09;19.30;;;15.05;;
13263;SDS011;6700;51.988;7.646;2023-11-18T06:03:37;19.20;;;14.83;;
13263;SDS011;6700;51.988;7.646;2023-11-18T06:08:37;17.95;;;14.35;;
13263;SDS011;6700;51.988;7.646;2023-11-18T06:11:08;17.48;;;14.65;;
13263;SDS011;6700;51.988;7.646;2023-11-18T06:13:42;19.98;;;14.02;;
13263;SDS011;6700;51.988;7.646;2023-11-18T06:18:44;17.35;;;14.10;;
13263;SDS011;6700;51.988;7.646;2023-11-18T06:21:11;19.00;;;14.73;;
13263;SDS011;6700;51.988;7.646;2023-11-18T06:23:42;17.60;;;14.95;;
13263;SDS011;6700;51.988;7.646;2023-11-18T06:26:09;20.13;;;15.03;;
13263;SDS011;6700;51.988;7.646;2023-11-18T06:28:43;17.10;;;14.25;;
13263;SDS011;6700;51.988;7.646;2023-11-18T06:31:11;18.58;;;14.45;;
13263;SDS011;6700;51.988;7.646;2023-11-18T06:33:39;19.05;;;14.18;;
13263;SDS011;6700;51.988;7.646;2023-11-18T06:36:09;19.38;;;14.05;;
13263;SDS011;6700;51.988;7.646;2023-11-18T06:38:44;18.23;;;14.50;;
13263;SDS011;6700;51.988;7.646;2023-11-18T06:41:12;18.83;;;14.40;;
13263;SDS011;6700;51.988;7.646;2023-11-18T06:43:40;16.63;;;13.77;;
13263;SDS011;6700;51.988;7.646;2023-11-18T06:46:30;19.07;;;14.80;;
13263;SDS011;6700;51.988;7.646;2023-11-18T06:49:00;17.88;;;14.07;;
13263;SDS011;6700;51.988;7.646;2023-11-18T06:51:30;17.17;;;13.45;;
13263;SDS011;6700;51.988;7.646;2023-11-18T06:53:59;16.45;;;13.82;;
13263;SDS011;6700;51.988;7.646;2023-11-18T06:56:26;21.13;;;14.73;;
13263;SDS011;6700;51.988;7.646;2023-11-18T06:58:53;16.05;;;13.30;;
13263;SDS011;6700;51.988;7.646;2023-11-18T07:01:21;19.35;;;14.25;;
13263;SDS011;6700;51.988;7.646;2023-11-18T07:03:48;17.88;;;14.20;;
13263;SDS011;6700;51.988;7.646;2023-11-18T07:06:18;18.35;;;13.68;;
13263;SDS011;6700;51.988;7.646;2023-11-18T07:08:49;17.85;;;13.65;;
13263;SDS011;6700;51.988;7.646;2023-11-18T07:11:17;18.37;;;13.60;;
13263;SDS011;6700;51.988;7.646;2023-11-18T07:13:45;17.83;;;13.48;;
13263;SDS011;6700;51.988;7.646;2023-11-18T07:16:15;20.17;;;14.38;;
13263;SDS011;6700;51.988;7.646;2023-11-18T07:18:42;18.35;;;14.25;;
13263;SDS011;6700;51.988;7.646;2023-11-18T07:21:09;18.42;;;15.50;;
13263;SDS011;6700;51.988;7.646;2023-11-18T07:23:36;16.35;;;14.07;;
13263;SDS011;6700;51.988;7.646;2023-11-18T07:26:03;16.10;;;13.02;;
13263;SDS011;6700;51.988;7.646;2023-11-18T07:28:30;17.70;;;13.40;;
13263;SDS011;6700;51.988;7.646;2023-11-18T07:30:57;15.13;;;13.30;;
13263;SDS011;6700;51.988;7.646;2023-11-18T07:33:25;17.25;;;13.60;;
13263;SDS011;6700;51.988;7.646;2023-11-18T07:35:53;20.52;;;13.82;;
13263;SDS011;6700;51.988;7.646;2023-11-18T07:38:21;15.70;;;13.55;;
13263;SDS011;6700;51.988;7.646;2023-11-18T07:40:47;18.73;;;13.90;;
13263;SDS011;6700;51.988;7.646;2023-11-18T07:43:15;20.00;;;13.77;;
13263;SDS011;6700;51.988;7.646;2023-11-18T07:45:42;18.45;;;14.00;;
13263;SDS011;6700;51.988;7.646;2023-11-18T07:48:10;18.80;;;13.93;;
13263;SDS011;6700;51.988;7.646;2023-11-18T07:50:39;16.73;;;13.73;;
13263;SDS011;6700;51.988;7.646;2023-11-18T07:53:10;17.05;;;13.70;;
13263;SDS011;6700;51.988;7.646;2023-11-18T07:55:37;18.38;;;13.40;;
13263;SDS011;6700;51.988;7.646;2023-11-18T07:58:07;16.07;;;13.20;;
13263;SDS011;6700;51.988;7.646;2023-11-18T08:00:37;17.80;;;14.18;;
13263;SDS011;6700;51.988;7.646;2023-11-18T08:03:08;17.85;;;13.07;;
13263;SDS011;6700;51.988;7.646;2023-11-18T08:05:39;16.05;;;12.55;;
13263;SDS011;6700;51.988;7.646;2023-11-18T08:08:10;16.43;;;12.50;;
13263;SDS011;6700;51.988;7.646;2023-11-18T08:10:37;16.77;;;13.40;;
13263;SDS011;6700;51.988;7.646;2023-11-18T08:13:06;16.45;;;13.27;;
13263;SDS011;6700;51.988;7.646;2023-11-18T08:15:34;18.93;;;14.47;;
13263;SDS011;6700;51.988;7.646;2023-11-18T08:18:04;15.95;;;13.20;;
13263;SDS011;6700;51.988;7.646;2023-11-18T08:20:30;15.98;;;13.02;;
13263;SDS011;6700;51.988;7.646;2023-11-18T08:22:57;19.00;;;14.20;;
13263;SDS011;6700;51.988;7.646;2023-11-18T08:25:25;18.43;;;14.30;;
13263;SDS011;6700;51.988;7.646;2023-11-18T08:27:52;16.73;;;12.85;;
13263;SDS011;6700;51.988;7.646;2023-11-18T08:30:18;17.67;;;12.68;;
13263;SDS011;6700;51.988;7.646;2023-11-18T08:32:47;16.98;;;13.30;;
13263;SDS011;6700;51.988;7.646;2023-11-18T08:35:15;16.80;;;13.55;;
13263;SDS011;6700;51.988;7.646;2023-11-18T08:37:42;18.25;;;13.18;;
13263;SDS011;6700;51.988;7.646;2023-11-18T08:40:10;17.42;;;14.07;;
13263;SDS011;6700;51.988;7.646;2023-11-18T08:42:48;15.60;;;13.48;;
13263;SDS011;6700;51.988;7.646;2023-11-18T08:45:17;18.42;;;14.15;;
13263;SDS011;6700;51.988;7.646;2023-11-18T08:47:55;17.38;;;14.10;;
13263;SDS011;6700;51.988;7.646;2023-11-18T08:50:24;16.58;;;13.20;;
13263;SDS011;6700;51.988;7.646;2023-11-18T08:52:52;19.00;;;14.05;;
13263;SDS011;6700;51.988;7.646;2023-11-18T08:55:25;19.02;;;14.45;;
13263;SDS011;6700;51.988;7.646;2023-11-18T08:58:07;18.50;;;14.43;;
13263;SDS011;6700;51.988;7.646;2023-11-18T09:00:55;18.00;;;13.97;;
13263;SDS011;6700;51.988;7.646;2023-11-18T09:03:31;21.75;;;15.27;;
13263;SDS011;6700;51.988;7.646;2023-11-18T09:06:03;20.63;;;14.52;;
13263;SDS011;6700;51.988;7.646;2023-11-18T09:08:35;18.65;;;14.55;;
13263;SDS011;6700;51.988;7.646;2023-11-18T09:11:09;18.88;;;14.90;;
13263;SDS011;6700;51.988;7.646;2023-11-18T09:13:45;19.52;;;15.68;;
13263;SDS011;6700;51.988;7.646;2023-11-18T09:16:15;20.10;;;15.55;;
13263;SDS011;6700;51.988;7.646;2023-11-18T09:18:43;18.35;;;15.43;;
13263;SDS011;6700;51.988;7.646;2023-11-18T09:21:12;18.90;;;14.80;;
13263;SDS011;6700;51.988;7.646;2023-11-18T09:23:45;20.00;;;15.45;;
13263;SDS011;6700;51.988;7.646;2023-11-18T09:26:14;20.33;;;15.40;;
13263;SDS011;6700;51.988;7.646;2023-11-18T09:28:42;20.70;;;15.88;;
13263;SDS011;6700;51.988;7.646;2023-11-18T09:31:12;20.73;;;15.13;;
13263;SDS011;6700;51.988;7.646;2023-11-18T09:33:40;19.10;;;14.83;;
13263;SDS011;6700;51.988;7.646;2023-11-18T09:36:13;18.58;;;14.93;;
13263;SDS011;6700;51.988;7.646;2023-11-18T09:38:39;21.25;;;16.63;;
13263;SDS011;6700;51.988;7.646;2023-11-18T09:41:07;20.98;;;15.75;;
13263;SDS011;6700;51.988;7.646;2023-11-18T09:43:37;19.10;;;15.37;;
13263;SDS011;6700;51.988;7.646;2023-11-18T09:46:15;19.60;;;15.80;;
13263;SDS011;6700;51.988;7.646;2023-11-18T09:48:45;22.23;;;17.13;;
13263;SDS011;6700;51.988;7.646;2023-11-18T09:53:49;18.90;;;15.75;;
13263;SDS011;6700;51.988;7.646;2023-11-18T09:59:31;21.45;;;16.90;;
13263;SDS011;6700;51.988;7.646;2023-11-18T10:02:02;18.67;;;15.07;;
13263;SDS011;6700;51.988;7.646;2023-11-18T10:04:37;19.90;;;16.42;;
13263;SDS011;6700;51.988;7.646;2023-11-18T10:07:05;18.95;;;16.25;;
13263;SDS011;6700;51.988;7.646;2023-11-18T10:09:37;23.02;;;16.65;;
13263;SDS011;6700;51.988;7.646;2023-11-18T10:12:08;20.93;;;16.67;;
13263;SDS011;6700;51.988;7.646;2023-11-18T10:14:40;21.20;;;15.50;;
13263;SDS011;6700;51.988;7.646;2023-11-18T10:17:10;21.23;;;16.92;;
13263;SDS011;6700;51.988;7.646;2023-11-18T10:22:26;18.03;;;15.37;;
13263;SDS011;6700;51.988;7.646;2023-11-18T10:24:56;19.88;;;16.30;;
13263;SDS011;6700;51.988;7.646;2023-11-18T10:27:24;19.35;;;15.90;;
13263;SDS011;6700;51.988;7.646;2023-11-18T10:30:02;19.92;;;16.08;;
13263;SDS011;6700;51.988;7.646;2023-11-18T10:32:30;20.17;;;16.35;;
13263;SDS011;6700;51.988;7.646;2023-11-18T10:35:03;21.63;;;16.88;;
13263;SDS011;6700;51.988;7.646;2023-11-18T10:37:31;20.38;;;16.83;;
13263;SDS011;6700;51.988;7.646;2023-11-18T10:40:03;21.27;;;17.33;;
13263;SDS011;6700;51.988;7.646;2023-11-18T10:42:31;20.50;;;16.88;;
13263;SDS011;6700;51.988;7.646;2023-11-18T10:44:59;20.50;;;16.83;;
13263;SDS011;6700;51.988;7.646;2023-11-18T10:47:33;21.92;;;17.27;;
13263;SDS011;6700;51.988;7.646;2023-11-18T10:50:05;21.42;;;17.13;;
13263;SDS011;6700;51.988;7.646;2023-11-18T10:52:36;22.63;;;17.92;;
13263;SDS011;6700;51.988;7.646;2023-11-18T10:55:07;20.67;;;17.02;;
13263;SDS011;6700;51.988;7.646;2023-11-18T10:57:39;21.25;;;16.58;;
13263;SDS011;6700;51.988;7.646;2023-11-18T11:00:08;20.60;;;16.43;;
13263;SDS011;6700;51.988;7.646;2023-11-18T11:02:46;20.00;;;16.05;;
13263;SDS011;6700;51.988;7.646;2023-11-18T11:05:29;19.70;;;16.95;;
13263;SDS011;6700;51.988;7.646;2023-11-18T11:08:01;19.40;;;16.00;;
13263;SDS011;6700;51.988;7.646;2023-11-18T11:10:31;19.27;;;15.75;;
13263;SDS011;6700;51.988;7.646;2023-11-18T11:13:00;18.27;;;15.25;;
13263;SDS011;6700;51.988;7.646;2023-11-18T11:15:31;18.27;;;15.23;;
13263;SDS011;6700;51.988;7.646;2023-11-18T11:18:20;19.48;;;15.38;;
13263;SDS011;6700;51.988;7.646;2023-11-18T11:21:05;18.73;;;14.73;;
13263;SDS011;6700;51.988;7.646;2023-11-18T11:23:42;17.58;;;14.43;;
13263;SDS011;6700;51.988;7.646;2023-11-18T11:26:23;16.70;;;13.90;;
13263;SDS011;6700;51.988;7.646;2023-11-18T11:31:26;19.58;;;15.55;;
13263;SDS011;6700;51.988;7.646;2023-11-18T11:33:59;18.35;;;14.48;;
13263;SDS011;6700;51.988;7.646;2023-11-18T11:36:43;16.30;;;13.97;;
13263;SDS011;6700;51.988;7.646;2023-11-18T11:39:12;19.87;;;13.30;;
13263;SDS011;6700;51.988;7.646;2023-11-18T11:41:50;15.13;;;12.80;;
13263;SDS011;6700;51.988;7.646;2023-11-18T11:44:17;15.93;;;12.90;;
13263;SDS011;6700;51.988;7.646;2023-11-18T11:46:47;15.05;;;13.05;;
13263;SDS011;6700;51.988;7.646;2023-11-18T11:49:22;15.35;;;13.05;;
13263;SDS011;6700;51.988;7.646;2023-11-18T11:52:00;15.88;;;12.93;;
13263;SDS011;6700;51.988;7.646;2023-11-18T11:54:33;16.00;;;13.43;;
13263;SDS011;6700;51.988;7.646;2023-11-18T11:57:02;15.47;;;12.57;;
13263;SDS011;6700;51.988;7.646;2023-11-18T12:02:11;15.57;;;12.57;;
13263;SDS011;6700;51.988;7.646;2023-11-18T12:04:45;15.13;;;11.57;;
13263;SDS011;6700;51.988;7.646;2023-11-18T12:07:14;14.07;;;11.70;;
13263;SDS011;6700;51.988;7.646;2023-11-18T12:09:43;14.73;;;12.30;;
13263;SDS011;6700;51.988;7.646;2023-11-18T12:12:17;14.85;;;12.48;;
13263;SDS011;6700;51.988;7.646;2023-11-18T12:14:49;13.52;;;11.23;;
13263;SDS011;6700;51.988;7.646;2023-11-18T12:17:19;13.20;;;11.25;;
13263;SDS011;6700;51.988;7.646;2023-11-18T12:19:49;12.77;;;10.55;;
13263;SDS011;6700;51.988;7.646;2023-11-18T12:22:17;15.07;;;11.43;;
13263;SDS011;6700;51.988;7.646;2023-11-18T12:24:46;14.80;;;11.70;;
13263;SDS011;6700;51.988;7.646;2023-11-18T12:30:50;13.75;;;11.18;;
13263;SDS011;6700;51.988;7.646;2023-11-18T12:33:03;14.63;;;11.95;;
13263;SDS011;6700;51.988;7.646;2023-11-18T12:40:53;13.30;;;10.82;;
13263;SDS011;6700;51.988;7.646;2023-11-18T12:43:49;12.90;;;10.82;;
13263;SDS011;6700;51.988;7.646;2023-11-18T12:48:51;14.65;;;10.55;;
13263;SDS011;6700;51.988;7.646;2023-11-18T12:51:21;12.73;;;9.95;;
13263;SDS011;6700;51.988;7.646;2023-11-18T12:53:49;14.98;;;10.48;;
13263;SDS011;6700;51.988;7.646;2023-11-18T12:56:17;13.85;;;10.95;;
13263;SDS011;6700;51.988;7.646;2023-11-18T12:58:46;13.73;;;10.98;;
13263;SDS011;6700;51.988;7.646;2023-11-18T13:01:14;13.18;;;10.65;;
13263;SDS011;6700;51.988;7.646;2023-11-18T13:03:42;15.07;;;10.90;;
13263;SDS011;6700;51.988;7.646;2023-11-18T13:06:10;15.05;;;11.18;;
13263;SDS011;6700;51.988;7.646;2023-11-18T13:08:41;15.52;;;10.68;;
13263;SDS011;6700;51.988;7.646;2023-11-18T13:11:08;15.57;;;10.93;;
13263;SDS011;6700;51.988;7.646;2023-11-18T13:13:42;14.57;;;10.30;;
13263;SDS011;6700;51.988;7.646;2023-11-18T13:16:09;13.65;;;10.45;;
13263;SDS011;6700;51.988;7.646;2023-11-18T13:18:46;14.48;;;10.63;;
13263;SDS011;6700;51.988;7.646;2023-11-18T13:21:19;15.90;;;12.32;;
13263;SDS011;6700;51.988;7.646;2023-11-18T13:23:49;14.93;;;11.33;;
13263;SDS011;6700;51.988;7.646;2023-11-18T13:26:19;16.60;;;11.15;;
13263;SDS011;6700;51.988;7.646;2023-11-18T13:28:47;15.20;;;11.60;;
13263;SDS011;6700;51.988;7.646;2023-11-18T13:31:16;15.30;;;11.95;;
13263;SDS011;6700;51.988;7.646;2023-11-18T13:33:48;16.15;;;11.77;;
13263;SDS011;6700;51.988;7.646;2023-11-18T13:36:16;15.68;;;11.93;;
13263;SDS011;6700;51.988;7.646;2023-11-18T13:38:43;16.90;;;12.38;;
13263;SDS011;6700;51.988;7.646;2023-11-18T13:41:10;14.63;;;11.25;;
13263;SDS011;6700;51.988;7.646;2023-11-18T13:43:42;16.10;;;11.70;;
13263;SDS011;6700;51.988;7.646;2023-11-18T13:46:13;15.13;;;11.63;;
13263;SDS011;6700;51.988;7.646;2023-11-18T13:48:41;15.52;;;11.57;;
13263;SDS011;6700;51.988;7.646;2023-11-18T13:51:09;13.23;;;10.38;;
13263;SDS011;6700;51.988;7.646;2023-11-18T13:53:39;17.67;;;11.63;;
13263;SDS011;6700;51.988;7.646;2023-11-18T13:56:08;15.52;;;11.43;;
13263;SDS011;6700;51.988;7.646;2023-11-18T13:58:35;17.25;;;11.73;;
13263;SDS011;6700;51.988;7.646;2023-11-18T14:01:06;16.60;;;11.73;;
13263;SDS011;6700;51.988;7.646;2023-11-18T14:03:37;18.05;;;12.20;;
13263;SDS011;6700;51.988;7.646;2023-11-18T14:06:08;17.27;;;12.55;;
13263;SDS011;6700;51.988;7.646;2023-11-18T14:08:38;18.58;;;12.75;;
13263;SDS011;6700;51.988;7.646;2023-11-18T14:11:06;16.97;;;11.93;;
13263;SDS011;6700;51.988;7.646;2023-11-18T14:13:42;17.70;;;12.10;;
13263;SDS011;6700;51.988;7.646;2023-11-18T14:16:09;18.50;;;12.27;;
13263;SDS011;6700;51.988;7.646;2023-11-18T14:18:39;16.15;;;12.20;;
13263;SDS011;6700;51.988;7.646;2023-11-18T14:21:08;15.55;;;12.23;;
13263;SDS011;6700;51.988;7.646;2023-11-18T14:23:35;15.98;;;12.50;;
13263;SDS011;6700;51.988;7.646;2023-11-18T14:26:04;15.07;;;12.10;;
13263;SDS011;6700;51.988;7.646;2023-11-18T14:28:32;14.38;;;11.35;;
13263;SDS011;6700;51.988;7.646;2023-11-18T14:31:01;22.23;;;15.10;;
13263;SDS011;6700;51.988;7.646;2023-11-18T14:33:30;17.00;;;11.60;;
13263;SDS011;6700;51.988;7.646;2023-11-18T14:36:01;14.23;;;9.52;;
13263;SDS011;6700;51.988;7.646;2023-11-18T14:38:28;14.90;;;9.80;;
13263;SDS011;6700;51.988;7.646;2023-11-18T14:40:56;17.58;;;10.32;;
13263;SDS011;6700;51.988;7.646;2023-11-18T14:43:25;13.55;;;9.27;;
13263;SDS011;6700;51.988;7.646;2023-11-18T14:45:52;13.68;;;9.50;;
13263;SDS011;6700;51.988;7.646;2023-11-18T14:48:19;13.60;;;9.48;;
13263;SDS011;6700;51.988;7.646;2023-11-18T14:50:46;15.18;;;9.48;;
13263;SDS011;6700;51.988;7.646;2023-11-18T14:53:13;10.68;;;8.63;;
13263;SDS011;6700;51.988;7.646;2023-11-18T14:55:41;14.23;;;8.95;;
13263;SDS011;6700;51.988;7.646;2023-11-18T14:58:09;12.90;;;8.30;;
13263;SDS011;6700;51.988;7.646;2023-11-18T15:00:38;12.70;;;8.70;;
13263;SDS011;6700;51.988;7.646;2023-11-18T15:03:05;12.20;;;8.52;;
13263;SDS011;6700;51.988;7.646;2023-11-18T15:05:33;11.52;;;8.38;;
13263;SDS011;6700;51.988;7.646;2023-11-18T15:08:00;9.95;;;8.07;;
13263;SDS011;6700;51.988;7.646;2023-11-18T15:10:28;10.50;;;7.97;;
13263;SDS011;6700;51.988;7.646;2023-11-18T15:12:56;9.65;;;7.30;;
13263;SDS011;6700;51.988;7.646;2023-11-18T15:15:28;9.60;;;6.90;;
13263;SDS011;6700;51.988;7.646;2023-11-18T15:18:01;8.23;;;7.25;;
13263;SDS011;6700;51.988;7.646;2023-11-18T15:20:36;7.40;;;6.55;;
13263;SDS011;6700;51.988;7.646;2023-11-18T15:23:03;7.30;;;6.53;;